sensor_id;sensor_type;location;lat;lon;timestamp;P1;durP1;ratioP1;P2;durP2;ratioP2
18592;SDS011;9426;54.118;17.948;2022-07-23T00:01:53;13.13;;;10.43;;
18592;SDS011;9426;54.118;17.948;2022-07-23T00:07:17;14.93;;;11.70;;
18592;SDS011;9426;54.118;17.948;2022-07-23T00:12:41;18.87;;;12.30;;
18592;SDS011;9426;54.118;17.948;2022-07-23T00:18:07;17.77;;;11.57;;
18592;SDS011;9426;54.118;17.948;2022-07-23T00:23:32;21.83;;;13.00;;
18592;SDS011;9426;54.118;17.948;2022-07-23T00:28:56;16.97;;;11.37;;
18592;SDS011;9426;54.118;17.948;2022-07-23T00:34:22;18.53;;;10.90;;
18592;SDS011;9426;54.118;17.948;2022-07-23T00:39:47;15.50;;;9.60;;
18592;SDS011;9426;54.118;17.948;2022-07-23T00:45:11;13.40;;;10.37;;
18592;SDS011;9426;54.118;17.948;2022-07-23T00:50:38;12.67;;;10.10;;
18592;SDS011;9426;54.118;17.948;2022-07-23T00:56:04;15.80;;;10.73;;
18592;SDS011;9426;54.118;17.948;2022-07-23T01:01:30;15.70;;;9.70;;
18592;SDS011;9426;54.118;17.948;2022-07-23T01:06:56;11.73;;;9.37;;
18592;SDS011;9426;54.118;17.948;2022-07-23T01:12:21;15.23;;;11.87;;
18592;SDS011;9426;54.118;17.948;2022-07-23T01:17:45;18.70;;;12.17;;
18592;SDS011;9426;54.118;17.948;2022-07-23T01:23:12;17.07;;;11.57;;
18592;SDS011;9426;54.118;17.948;2022-07-23T01:28:43;12.73;;;10.30;;
18592;SDS011;9426;54.118;17.948;2022-07-23T01:34:07;14.17;;;10.00;;
18592;SDS011;9426;54.118;17.948;2022-07-23T01:39:33;18.07;;;12.23;;
18592;SDS011;9426;54.118;17.948;2022-07-23T01:44:58;22.93;;;14.93;;
18592;SDS011;9426;54.118;17.948;2022-07-23T01:50:22;18.10;;;13.37;;
18592;SDS011;9426;54.118;17.948;2022-07-23T01:56:06;16.03;;;12.17;;
18592;SDS011;9426;54.118;17.948;2022-07-23T02:01:31;15.13;;;11.97;;
18592;SDS011;9426;54.118;17.948;2022-07-23T02:06:57;17.63;;;12.77;;
18592;SDS011;9426;54.118;17.948;2022-07-23T02:12:23;17.73;;;12.63;;
18592;SDS011;9426;54.118;17.948;2022-07-23T02:17:47;20.33;;;13.87;;
18592;SDS011;9426;54.118;17.948;2022-07-23T02:23:11;21.27;;;14.33;;
18592;SDS011;9426;54.118;17.948;2022-07-23T02:28:36;27.93;;;15.37;;
18592;SDS011;9426;54.118;17.948;2022-07-23T02:34:01;24.00;;;15.70;;
18592;SDS011;9426;54.118;17.948;2022-07-23T02:39:25;26.90;;;16.43;;
18592;SDS011;9426;54.118;17.948;2022-07-23T02:44:50;24.17;;;16.27;;
18592;SDS011;9426;54.118;17.948;2022-07-23T02:50:14;17.40;;;13.10;;
18592;SDS011;9426;54.118;17.948;2022-07-23T02:55:38;20.80;;;13.60;;
18592;SDS011;9426;54.118;17.948;2022-07-23T03:01:03;19.73;;;13.93;;
18592;SDS011;9426;54.118;17.948;2022-07-23T03:06:26;20.97;;;14.27;;
18592;SDS011;9426;54.118;17.948;2022-07-23T03:11:49;21.10;;;14.93;;
18592;SDS011;9426;54.118;17.948;2022-07-23T03:17:15;17.40;;;12.87;;
18592;SDS011;9426;54.118;17.948;2022-07-23T03:22:40;17.30;;;13.63;;
18592;SDS011;9426;54.118;17.948;2022-07-23T03:28:03;22.87;;;15.77;;
18592;SDS011;9426;54.118;17.948;2022-07-23T03:33:28;24.97;;;16.80;;
18592;SDS011;9426;54.118;17.948;2022-07-23T03:38:52;21.27;;;14.50;;
18592;SDS011;9426;54.118;17.948;2022-07-23T03:44:16;29.40;;;17.50;;
18592;SDS011;9426;54.118;17.948;2022-07-23T03:49:40;17.70;;;13.20;;
18592;SDS011;9426;54.118;17.948;2022-07-23T03:55:05;18.20;;;13.93;;
18592;SDS011;9426;54.118;17.948;2022-07-23T04:00:30;20.20;;;13.43;;
18592;SDS011;9426;54.118;17.948;2022-07-23T04:05:55;25.93;;;16.00;;
18592;SDS011;9426;54.118;17.948;2022-07-23T04:11:23;19.27;;;14.20;;
18592;SDS011;9426;54.118;17.948;2022-07-23T04:16:46;21.87;;;13.90;;
18592;SDS011;9426;54.118;17.948;2022-07-23T04:22:11;21.23;;;13.37;;
18592;SDS011;9426;54.118;17.948;2022-07-23T04:27:36;21.33;;;12.77;;
18592;SDS011;9426;54.118;17.948;2022-07-23T04:32:59;16.03;;;10.00;;
18592;SDS011;9426;54.118;17.948;2022-07-23T04:38:29;15.37;;;8.00;;
18592;SDS011;9426;54.118;17.948;2022-07-23T04:43:56;14.30;;;7.80;;
18592;SDS011;9426;54.118;17.948;2022-07-23T04:49:20;14.90;;;9.30;;
18592;SDS011;9426;54.118;17.948;2022-07-23T04:54:45;18.03;;;9.20;;
18592;SDS011;9426;54.118;17.948;2022-07-23T05:00:10;15.80;;;8.60;;
18592;SDS011;9426;54.118;17.948;2022-07-23T05:05:34;9.57;;;6.83;;
18592;SDS011;9426;54.118;17.948;2022-07-23T05:11:05;10.13;;;7.17;;
18592;SDS011;9426;54.118;17.948;2022-07-23T05:16:29;11.53;;;6.83;;
18592;SDS011;9426;54.118;17.948;2022-07-23T05:22:16;14.50;;;7.10;;
18592;SDS011;9426;54.118;17.948;2022-07-23T05:28:01;9.77;;;5.97;;
18592;SDS011;9426;54.118;17.948;2022-07-23T05:33:45;9.23;;;5.90;;
18592;SDS011;9426;54.118;17.948;2022-07-23T05:39:29;12.27;;;5.90;;
18592;SDS011;9426;54.118;17.948;2022-07-23T05:45:14;11.07;;;5.67;;
18592;SDS011;9426;54.118;17.948;2022-07-23T05:50:59;11.87;;;5.40;;
18592;SDS011;9426;54.118;17.948;2022-07-23T05:56:46;8.77;;;5.20;;
18592;SDS011;9426;54.118;17.948;2022-07-23T06:02:30;12.20;;;5.53;;
18592;SDS011;9426;54.118;17.948;2022-07-23T06:08:14;10.27;;;5.30;;
18592;SDS011;9426;54.118;17.948;2022-07-23T06:13:58;14.63;;;5.73;;
18592;SDS011;9426;54.118;17.948;2022-07-23T06:19:56;12.60;;;5.40;;
18592;SDS011;9426;54.118;17.948;2022-07-23T06:25:39;13.27;;;6.47;;
18592;SDS011;9426;54.118;17.948;2022-07-23T06:31:23;11.67;;;5.77;;
18592;SDS011;9426;54.118;17.948;2022-07-23T06:37:08;15.63;;;6.10;;
18592;SDS011;9426;54.118;17.948;2022-07-23T06:42:51;10.80;;;4.93;;
18592;SDS011;9426;54.118;17.948;2022-07-23T06:48:36;10.30;;;5.50;;
18592;SDS011;9426;54.118;17.948;2022-07-23T06:54:21;9.83;;;6.17;;
18592;SDS011;9426;54.118;17.948;2022-07-23T07:00:05;14.37;;;5.70;;
18592;SDS011;9426;54.118;17.948;2022-07-23T07:05:49;11.50;;;5.90;;
18592;SDS011;9426;54.118;17.948;2022-07-23T07:11:34;12.87;;;5.50;;
18592;SDS011;9426;54.118;17.948;2022-07-23T07:17:17;7.77;;;5.70;;
18592;SDS011;9426;54.118;17.948;2022-07-23T07:23:00;9.90;;;5.50;;
18592;SDS011;9426;54.118;17.948;2022-07-23T07:28:44;10.23;;;5.70;;
18592;SDS011;9426;54.118;17.948;2022-07-23T07:34:28;8.40;;;5.67;;
18592;SDS011;9426;54.118;17.948;2022-07-23T07:40:11;7.97;;;5.00;;
18592;SDS011;9426;54.118;17.948;2022-07-23T07:45:56;10.10;;;5.37;;
18592;SDS011;9426;54.118;17.948;2022-07-23T07:51:40;8.57;;;4.90;;
18592;SDS011;9426;54.118;17.948;2022-07-23T07:57:23;11.63;;;5.47;;
18592;SDS011;9426;54.118;17.948;2022-07-23T08:03:07;7.50;;;5.40;;
18592;SDS011;9426;54.118;17.948;2022-07-23T08:08:50;12.07;;;4.83;;
18592;SDS011;9426;54.118;17.948;2022-07-23T08:14:33;6.13;;;4.47;;
18592;SDS011;9426;54.118;17.948;2022-07-23T08:20:25;8.87;;;4.90;;
18592;SDS011;9426;54.118;17.948;2022-07-23T08:26:09;8.85;;;5.15;;
18592;SDS011;9426;54.118;17.948;2022-07-23T08:31:52;9.67;;;4.80;;
18592;SDS011;9426;54.118;17.948;2022-07-23T08:37:37;5.87;;;4.53;;
18592;SDS011;9426;54.118;17.948;2022-07-23T08:43:21;8.93;;;4.73;;
18592;SDS011;9426;54.118;17.948;2022-07-23T08:49:06;8.23;;;5.40;;
18592;SDS011;9426;54.118;17.948;2022-07-23T08:54:51;5.07;;;4.18;;
18592;SDS011;9426;54.118;17.948;2022-07-23T09:00:36;7.88;;;5.03;;
18592;SDS011;9426;54.118;17.948;2022-07-23T09:06:19;7.30;;;4.82;;
18592;SDS011;9426;54.118;17.948;2022-07-23T09:12:04;7.18;;;4.88;;
18592;SDS011;9426;54.118;17.948;2022-07-23T09:17:49;9.30;;;5.22;;
18592;SDS011;9426;54.118;17.948;2022-07-23T09:23:36;10.32;;;5.00;;
18592;SDS011;9426;54.118;17.948;2022-07-23T09:29:23;10.48;;;6.15;;
18592;SDS011;9426;54.118;17.948;2022-07-23T09:35:07;8.30;;;4.95;;
18592;SDS011;9426;54.118;17.948;2022-07-23T09:41:05;11.43;;;5.50;;
18592;SDS011;9426;54.118;17.948;2022-07-23T09:46:50;9.60;;;6.30;;
18592;SDS011;9426;54.118;17.948;2022-07-23T09:52:42;8.53;;;6.23;;
18592;SDS011;9426;54.118;17.948;2022-07-23T09:58:27;9.27;;;5.63;;
18592;SDS011;9426;54.118;17.948;2022-07-23T10:04:14;8.03;;;4.47;;
18592;SDS011;9426;54.118;17.948;2022-07-23T10:10:16;8.97;;;5.67;;
18592;SDS011;9426;54.118;17.948;2022-07-23T10:16:23;10.13;;;5.57;;
18592;SDS011;9426;54.118;17.948;2022-07-23T10:22:09;8.47;;;5.43;;
18592;SDS011;9426;54.118;17.948;2022-07-23T10:34:19;6.47;;;4.50;;
18592;SDS011;9426;54.118;17.948;2022-07-23T10:40:10;9.53;;;6.00;;
18592;SDS011;9426;54.118;17.948;2022-07-23T10:46:21;8.87;;;5.60;;
18592;SDS011;9426;54.118;17.948;2022-07-23T10:52:21;11.23;;;6.10;;
18592;SDS011;9426;54.118;17.948;2022-07-23T10:58:07;9.53;;;5.60;;
18592;SDS011;9426;54.118;17.948;2022-07-23T11:03:55;12.93;;;6.37;;
18592;SDS011;9426;54.118;17.948;2022-07-23T11:09:23;9.10;;;5.50;;
18592;SDS011;9426;54.118;17.948;2022-07-23T11:15:02;11.27;;;6.00;;
18592;SDS011;9426;54.118;17.948;2022-07-23T11:20:27;13.30;;;7.27;;
18592;SDS011;9426;54.118;17.948;2022-07-23T11:25:51;15.93;;;8.80;;
18592;SDS011;9426;54.118;17.948;2022-07-23T11:31:18;14.40;;;7.40;;
18592;SDS011;9426;54.118;17.948;2022-07-23T11:36:48;8.97;;;6.40;;
18592;SDS011;9426;54.118;17.948;2022-07-23T11:42:11;9.57;;;6.33;;
18592;SDS011;9426;54.118;17.948;2022-07-23T11:47:42;9.40;;;6.00;;
18592;SDS011;9426;54.118;17.948;2022-07-23T11:53:05;15.27;;;9.30;;
18592;SDS011;9426;54.118;17.948;2022-07-23T11:58:29;13.20;;;8.67;;
18592;SDS011;9426;54.118;17.948;2022-07-23T12:03:54;10.93;;;6.70;;
18592;SDS011;9426;54.118;17.948;2022-07-23T12:09:17;11.20;;;5.87;;
18592;SDS011;9426;54.118;17.948;2022-07-23T12:14:46;8.17;;;5.73;;
18592;SDS011;9426;54.118;17.948;2022-07-23T12:20:13;7.93;;;5.13;;
18592;SDS011;9426;54.118;17.948;2022-07-23T12:25:39;8.97;;;5.40;;
18592;SDS011;9426;54.118;17.948;2022-07-23T12:31:05;7.23;;;4.80;;
18592;SDS011;9426;54.118;17.948;2022-07-23T12:36:37;10.03;;;5.07;;
18592;SDS011;9426;54.118;17.948;2022-07-23T12:42:10;5.67;;;4.33;;
18592;SDS011;9426;54.118;17.948;2022-07-23T12:47:53;6.37;;;4.10;;
18592;SDS011;9426;54.118;17.948;2022-07-23T12:53:21;7.50;;;4.07;;
18592;SDS011;9426;54.118;17.948;2022-07-23T12:58:47;5.40;;;3.60;;
18592;SDS011;9426;54.118;17.948;2022-07-23T13:04:13;6.60;;;4.28;;
18592;SDS011;9426;54.118;17.948;2022-07-23T13:09:39;5.40;;;3.58;;
18592;SDS011;9426;54.118;17.948;2022-07-23T13:15:03;7.93;;;3.88;;
18592;SDS011;9426;54.118;17.948;2022-07-23T13:20:27;4.93;;;3.75;;
18592;SDS011;9426;54.118;17.948;2022-07-23T13:25:54;6.60;;;4.15;;
18592;SDS011;9426;54.118;17.948;2022-07-23T13:31:18;6.80;;;4.40;;
18592;SDS011;9426;54.118;17.948;2022-07-23T13:36:44;6.40;;;4.30;;
18592;SDS011;9426;54.118;17.948;2022-07-23T13:42:09;6.63;;;4.30;;
18592;SDS011;9426;54.118;17.948;2022-07-23T13:47:32;8.15;;;4.85;;
18592;SDS011;9426;54.118;17.948;2022-07-23T13:52:56;5.50;;;4.28;;
18592;SDS011;9426;54.118;17.948;2022-07-23T13:58:21;6.82;;;4.72;;
18592;SDS011;9426;54.118;17.948;2022-07-23T14:03:45;5.28;;;4.40;;
18592;SDS011;9426;54.118;17.948;2022-07-23T14:09:08;8.73;;;4.63;;
18592;SDS011;9426;54.118;17.948;2022-07-23T14:14:33;6.00;;;4.25;;
18592;SDS011;9426;54.118;17.948;2022-07-23T14:19:57;8.27;;;4.97;;
18592;SDS011;9426;54.118;17.948;2022-07-23T14:25:20;7.22;;;5.32;;
18592;SDS011;9426;54.118;17.948;2022-07-23T14:30:44;5.47;;;4.50;;
18592;SDS011;9426;54.118;17.948;2022-07-23T14:36:08;5.72;;;4.40;;
18592;SDS011;9426;54.118;17.948;2022-07-23T14:41:35;5.90;;;4.45;;
18592;SDS011;9426;54.118;17.948;2022-07-23T14:47:00;6.50;;;4.47;;
18592;SDS011;9426;54.118;17.948;2022-07-23T14:52:25;5.63;;;4.38;;
18592;SDS011;9426;54.118;17.948;2022-07-23T14:57:48;7.68;;;4.20;;
18592;SDS011;9426;54.118;17.948;2022-07-23T15:03:13;9.10;;;4.50;;
18592;SDS011;9426;54.118;17.948;2022-07-23T15:08:36;4.68;;;3.75;;
18592;SDS011;9426;54.118;17.948;2022-07-23T15:13:59;6.50;;;3.60;;
18592;SDS011;9426;54.118;17.948;2022-07-23T15:19:24;6.65;;;3.85;;
18592;SDS011;9426;54.118;17.948;2022-07-23T15:24:48;4.90;;;3.65;;
18592;SDS011;9426;54.118;17.948;2022-07-23T15:30:11;5.38;;;3.67;;
18592;SDS011;9426;54.118;17.948;2022-07-23T15:41:37;4.75;;;3.70;;
18592;SDS011;9426;54.118;17.948;2022-07-23T15:47:00;7.60;;;3.90;;
18592;SDS011;9426;54.118;17.948;2022-07-23T15:52:25;6.65;;;4.35;;
18592;SDS011;9426;54.118;17.948;2022-07-23T15:57:58;5.93;;;4.10;;
18592;SDS011;9426;54.118;17.948;2022-07-23T16:03:26;6.28;;;4.00;;
18592;SDS011;9426;54.118;17.948;2022-07-23T16:09:07;12.27;;;4.77;;
18592;SDS011;9426;54.118;17.948;2022-07-23T16:14:34;6.47;;;4.47;;
18592;SDS011;9426;54.118;17.948;2022-07-23T16:26:15;6.28;;;3.25;;
18592;SDS011;9426;54.118;17.948;2022-07-23T16:31:41;6.65;;;3.20;;
18592;SDS011;9426;54.118;17.948;2022-07-23T16:44:05;3.17;;;2.00;;
18592;SDS011;9426;54.118;17.948;2022-07-23T16:49:29;3.95;;;1.80;;
18592;SDS011;9426;54.118;17.948;2022-07-23T16:55:10;4.90;;;1.88;;
18592;SDS011;9426;54.118;17.948;2022-07-23T17:00:35;3.97;;;1.57;;
18592;SDS011;9426;54.118;17.948;2022-07-23T17:05:59;3.50;;;1.50;;
18592;SDS011;9426;54.118;17.948;2022-07-23T17:11:22;4.67;;;1.60;;
18592;SDS011;9426;54.118;17.948;2022-07-23T17:16:47;3.13;;;1.53;;
18592;SDS011;9426;54.118;17.948;2022-07-23T17:22:11;10.07;;;1.70;;
18592;SDS011;9426;54.118;17.948;2022-07-23T17:27:34;4.87;;;1.60;;
18592;SDS011;9426;54.118;17.948;2022-07-23T17:32:59;2.43;;;1.30;;
18592;SDS011;9426;54.118;17.948;2022-07-23T17:38:26;3.50;;;1.40;;
18592;SDS011;9426;54.118;17.948;2022-07-23T17:43:50;3.20;;;1.40;;
18592;SDS011;9426;54.118;17.948;2022-07-23T17:49:14;2.33;;;1.30;;
18592;SDS011;9426;54.118;17.948;2022-07-23T17:54:38;3.30;;;1.40;;
18592;SDS011;9426;54.118;17.948;2022-07-23T18:00:02;2.77;;;1.50;;
18592;SDS011;9426;54.118;17.948;2022-07-23T18:05:29;3.93;;;1.50;;
18592;SDS011;9426;54.118;17.948;2022-07-23T18:10:53;1.50;;;1.00;;
18592;SDS011;9426;54.118;17.948;2022-07-23T18:16:16;4.60;;;1.10;;
18592;SDS011;9426;54.118;17.948;2022-07-23T18:21:41;5.53;;;1.30;;
18592;SDS011;9426;54.118;17.948;2022-07-23T18:27:05;4.23;;;1.53;;
18592;SDS011;9426;54.118;17.948;2022-07-23T18:32:28;5.70;;;1.20;;
18592;SDS011;9426;54.118;17.948;2022-07-23T18:37:54;5.17;;;1.40;;
18592;SDS011;9426;54.118;17.948;2022-07-23T18:43:19;3.60;;;1.30;;
18592;SDS011;9426;54.118;17.948;2022-07-23T18:48:43;2.43;;;1.30;;
18592;SDS011;9426;54.118;17.948;2022-07-23T18:54:07;4.63;;;1.60;;
18592;SDS011;9426;54.118;17.948;2022-07-23T18:59:33;1.40;;;1.10;;
18592;SDS011;9426;54.118;17.948;2022-07-23T19:04:57;3.50;;;1.50;;
18592;SDS011;9426;54.118;17.948;2022-07-23T19:10:22;2.10;;;1.00;;
18592;SDS011;9426;54.118;17.948;2022-07-23T19:15:45;3.33;;;0.93;;
18592;SDS011;9426;54.118;17.948;2022-07-23T19:21:08;5.47;;;1.20;;
18592;SDS011;9426;54.118;17.948;2022-07-23T19:26:34;1.60;;;1.13;;
18592;SDS011;9426;54.118;17.948;2022-07-23T19:31:57;6.70;;;1.10;;
18592;SDS011;9426;54.118;17.948;2022-07-23T19:37:21;2.03;;;1.27;;
18592;SDS011;9426;54.118;17.948;2022-07-23T19:42:46;1.80;;;0.90;;
18592;SDS011;9426;54.118;17.948;2022-07-23T19:48:09;2.80;;;1.20;;
18592;SDS011;9426;54.118;17.948;2022-07-23T19:53:33;1.60;;;0.93;;
18592;SDS011;9426;54.118;17.948;2022-07-23T19:58:58;2.87;;;1.30;;
18592;SDS011;9426;54.118;17.948;2022-07-23T20:04:22;2.37;;;1.20;;
18592;SDS011;9426;54.118;17.948;2022-07-23T20:09:45;1.93;;;1.13;;
18592;SDS011;9426;54.118;17.948;2022-07-23T20:15:10;3.63;;;1.40;;
18592;SDS011;9426;54.118;17.948;2022-07-23T20:20:34;5.00;;;1.37;;
18592;SDS011;9426;54.118;17.948;2022-07-23T20:25:57;1.50;;;1.20;;
18592;SDS011;9426;54.118;17.948;2022-07-23T20:31:22;1.67;;;1.10;;
18592;SDS011;9426;54.118;17.948;2022-07-23T20:37:05;1.87;;;1.30;;
18592;SDS011;9426;54.118;17.948;2022-07-23T20:42:48;2.30;;;1.23;;
18592;SDS011;9426;54.118;17.948;2022-07-23T20:48:33;5.43;;;1.60;;
18592;SDS011;9426;54.118;17.948;2022-07-23T20:54:16;2.27;;;1.67;;
18592;SDS011;9426;54.118;17.948;2022-07-23T20:59:59;4.40;;;1.50;;
18592;SDS011;9426;54.118;17.948;2022-07-23T21:05:44;4.33;;;1.63;;
18592;SDS011;9426;54.118;17.948;2022-07-23T21:11:27;2.37;;;1.40;;
18592;SDS011;9426;54.118;17.948;2022-07-23T21:17:11;3.07;;;1.80;;
18592;SDS011;9426;54.118;17.948;2022-07-23T21:22:56;2.83;;;1.90;;
18592;SDS011;9426;54.118;17.948;2022-07-23T21:28:39;4.37;;;2.00;;
18592;SDS011;9426;54.118;17.948;2022-07-23T21:34:24;5.90;;;2.40;;
18592;SDS011;9426;54.118;17.948;2022-07-23T21:39:49;4.03;;;2.30;;
18592;SDS011;9426;54.118;17.948;2022-07-23T21:45:12;3.93;;;1.80;;
18592;SDS011;9426;54.118;17.948;2022-07-23T21:50:36;7.93;;;2.13;;
18592;SDS011;9426;54.118;17.948;2022-07-23T21:56:00;3.97;;;2.37;;
18592;SDS011;9426;54.118;17.948;2022-07-23T22:01:24;3.73;;;2.20;;
18592;SDS011;9426;54.118;17.948;2022-07-23T22:06:47;5.30;;;1.90;;
18592;SDS011;9426;54.118;17.948;2022-07-23T22:12:12;2.87;;;1.93;;
18592;SDS011;9426;54.118;17.948;2022-07-23T22:17:35;5.00;;;2.37;;
18592;SDS011;9426;54.118;17.948;2022-07-23T22:22:59;3.63;;;2.17;;
18592;SDS011;9426;54.118;17.948;2022-07-23T22:28:24;3.03;;;2.03;;
18592;SDS011;9426;54.118;17.948;2022-07-23T22:33:47;4.80;;;2.33;;
18592;SDS011;9426;54.118;17.948;2022-07-23T22:39:11;3.77;;;2.00;;
18592;SDS011;9426;54.118;17.948;2022-07-23T22:44:36;4.90;;;2.10;;
18592;SDS011;9426;54.118;17.948;2022-07-23T22:49:59;4.27;;;2.00;;
18592;SDS011;9426;54.118;17.948;2022-07-23T22:55:25;5.60;;;2.00;;
18592;SDS011;9426;54.118;17.948;2022-07-23T23:00:50;6.63;;;2.30;;
18592;SDS011;9426;54.118;17.948;2022-07-23T23:06:14;4.97;;;2.20;;
18592;SDS011;9426;54.118;17.948;2022-07-23T23:11:37;4.73;;;1.90;;
18592;SDS011;9426;54.118;17.948;2022-07-23T23:17:02;3.00;;;1.90;;
18592;SDS011;9426;54.118;17.948;2022-07-23T23:22:25;6.37;;;2.20;;
18592;SDS011;9426;54.118;17.948;2022-07-23T23:27:48;7.80;;;2.07;;
18592;SDS011;9426;54.118;17.948;2022-07-23T23:33:13;5.47;;;2.40;;
18592;SDS011;9426;54.118;17.948;2022-07-23T23:38:36;6.17;;;2.40;;
18592;SDS011;9426;54.118;17.948;2022-07-23T23:44:00;5.43;;;2.37;;
18592;SDS011;9426;54.118;17.948;2022-07-23T23:49:25;6.90;;;2.67;;
18592;SDS011;9426;54.118;17.948;2022-07-23T23:54:48;14.87;;;3.20;;
